createdAt,value
2019-02-07T00:02:20.746Z,0.67
2019-02-07T00:07:24.790Z,0.64
2019-02-07T00:12:28.864Z,0.50
2019-02-07T00:17:33.220Z,0.53
2019-02-07T00:22:39.214Z,0.75
2019-02-07T00:27:43.271Z,0.73
2019-02-07T00:32:47.591Z,0.71
2019-02-07T00:37:52.720Z,0.83
2019-02-07T00:42:56.778Z,0.91
2019-02-07T00:48:00.836Z,0.67
2019-02-07T00:53:04.883Z,0.54
2019-02-07T00:58:10.096Z,0.46
2019-02-07T01:03:14.214Z,0.40
2019-02-07T01:08:18.945Z,0.35
2019-02-07T01:13:23.051Z,0.45
2019-02-07T01:18:27.047Z,0.31
2019-02-07T01:23:31.126Z,0.59
2019-02-07T01:28:35.149Z,0.47
2019-02-07T01:33:39.164Z,0.47
2019-02-07T01:38:43.507Z,0.33
2019-02-07T01:43:47.595Z,0.39
2019-02-07T01:48:53.121Z,0.13
2019-02-07T01:53:57.945Z,-0.01
2019-02-07T01:59:02.029Z,-0.20
2019-02-07T02:04:06.112Z,-0.45
2019-02-07T02:09:10.974Z,-0.51
2019-02-07T02:14:15.939Z,-0.68
2019-02-07T02:19:20.016Z,-0.81
2019-02-07T02:24:24.389Z,-0.87
2019-02-07T02:29:28.447Z,-0.69
2019-02-07T02:34:32.578Z,-0.74
2019-02-07T02:39:36.634Z,-1.05
2019-02-07T02:44:40.666Z,-1.05
2019-02-07T02:49:44.691Z,-0.92
2019-02-07T02:54:48.802Z,-0.79
2019-02-07T02:59:53.838Z,-0.91
2019-02-07T03:04:57.909Z,-0.92
2019-02-07T03:10:01.961Z,-0.99
2019-02-07T03:15:07.874Z,-0.90
2019-02-07T03:20:12.216Z,-0.94
2019-02-07T03:25:16.278Z,-0.66
2019-02-07T03:30:20.319Z,-0.93
2019-02-07T03:35:24.517Z,-1.19
2019-02-07T03:40:28.629Z,-1.16
2019-02-07T03:45:32.704Z,-1.32
2019-02-07T03:50:36.772Z,-1.48
2019-02-07T03:55:40.842Z,-1.60
2019-02-07T04:00:44.891Z,-1.63
2019-02-07T04:05:48.989Z,-1.63
2019-02-07T04:10:53.357Z,-1.56
2019-02-07T04:15:57.386Z,-1.59
2019-02-07T04:21:01.493Z,-1.66
2019-02-07T04:26:05.494Z,-1.52
2019-02-07T04:31:09.860Z,-1.45
2019-02-07T04:36:13.901Z,-1.32
2019-02-07T04:41:17.992Z,-1.40
2019-02-07T04:46:27.107Z,-1.26
2019-02-07T04:51:28.029Z,-1.31
2019-02-07T04:56:32.189Z,-1.20
2019-02-07T05:01:36.562Z,-1.18
2019-02-07T05:06:40.680Z,-1.07
2019-02-07T05:11:45.273Z,-0.72
2019-02-07T05:16:49.347Z,-0.62
2019-02-07T05:21:53.421Z,-0.63
2019-02-07T05:26:57.509Z,-0.36
2019-02-07T05:32:01.851Z,-0.38
2019-02-07T05:37:06.019Z,-0.26
2019-02-07T05:42:11.040Z,-0.46
2019-02-07T05:47:15.528Z,-0.52
2019-02-07T05:52:19.946Z,-0.36
2019-02-07T05:57:24.912Z,-0.46
2019-02-07T06:02:29.885Z,-0.54
2019-02-07T06:07:34.057Z,-0.35
2019-02-07T06:12:38.462Z,-0.34
2019-02-07T06:17:42.529Z,-0.21
2019-02-07T06:22:46.825Z,-0.07
2019-02-07T06:27:50.914Z,0.10
2019-02-07T06:32:55.029Z,0.11
2019-02-07T06:37:59.126Z,0.20
2019-02-07T06:43:03.238Z,0.33
2019-02-07T06:48:07.473Z,0.35
2019-02-07T06:53:11.623Z,0.32
2019-02-07T06:58:15.941Z,0.37
2019-02-07T07:03:20.319Z,0.42
2019-02-07T07:08:24.376Z,0.53
2019-02-07T07:13:28.803Z,0.65
2019-02-07T07:18:32.879Z,0.73
2019-02-07T07:23:36.928Z,0.64
2019-02-07T07:28:40.995Z,0.77
2019-02-07T07:33:45.112Z,0.88
2019-02-07T07:38:49.257Z,1.06
2019-02-07T07:43:53.336Z,1.10
2019-02-07T07:48:58.185Z,1.13
2019-02-07T07:54:02.547Z,1.19
2019-02-07T07:59:24.523Z,1.14
2019-02-07T08:04:37.798Z,1.06
2019-02-07T08:09:41.896Z,1.12
2019-02-07T08:14:46.311Z,1.17
2019-02-07T08:19:50.389Z,1.17
2019-02-07T08:24:54.443Z,1.19
2019-02-07T08:29:58.580Z,1.33
2019-02-07T08:35:03.080Z,1.38
2019-02-07T08:40:08.981Z,1.44
2019-02-07T08:45:13.248Z,1.53
2019-02-07T08:50:17.850Z,1.66
2019-02-07T08:55:22.117Z,1.78
2019-02-07T09:00:26.115Z,1.79
2019-02-07T09:05:30.708Z,1.82
2019-02-07T09:10:35.100Z,1.84
2019-02-07T09:15:39.651Z,1.89
2019-02-07T09:20:44.280Z,2.04
2019-02-07T09:25:48.671Z,2.19
2019-02-07T09:30:52.826Z,2.62
2019-02-07T09:36:04.907Z,3.14
2019-02-07T09:41:02.704Z,3.49
2019-02-07T09:46:06.834Z,3.72
2019-02-07T09:51:11.060Z,3.77
2019-02-07T09:56:15.490Z,3.80
2019-02-07T10:01:19.556Z,3.66
2019-02-07T10:06:23.613Z,3.73
2019-02-07T10:11:27.787Z,4.24
2019-02-07T10:16:31.948Z,4.44
2019-02-07T10:21:36.536Z,4.67
2019-02-07T10:26:41.364Z,4.99
2019-02-07T10:31:45.749Z,5.79
2019-02-07T10:36:50.115Z,5.91
2019-02-07T10:41:54.240Z,5.79
2019-02-07T10:46:59.822Z,5.64
2019-02-07T10:52:03.995Z,5.56
2019-02-07T10:57:08.306Z,5.71
2019-02-07T11:02:13.866Z,5.69
2019-02-07T11:07:18.038Z,5.68
2019-02-07T11:12:22.249Z,5.67
2019-02-07T11:17:26.288Z,5.78
2019-02-07T11:22:30.708Z,5.75
2019-02-07T11:27:34.699Z,5.55
2019-02-07T11:32:39.230Z,5.34
2019-02-07T11:37:43.395Z,5.16
2019-02-07T11:42:47.854Z,5.49
2019-02-07T11:47:52.165Z,5.50
2019-02-07T11:52:56.230Z,5.77
2019-02-07T11:58:00.300Z,5.16
2019-02-07T12:03:04.562Z,4.91
2019-02-07T12:08:09.051Z,5.08
2019-02-07T12:13:13.148Z,4.97
2019-02-07T12:18:19.068Z,4.91
2019-02-07T12:23:23.135Z,4.78
2019-02-07T12:28:27.240Z,4.60
2019-02-07T12:33:31.631Z,4.56
2019-02-07T12:38:36.812Z,4.57
2019-02-07T12:43:42.405Z,4.69
2019-02-07T12:48:48.209Z,4.67
2019-02-07T12:53:52.296Z,4.81
2019-02-07T12:58:56.444Z,4.83
2019-02-07T13:04:01.106Z,4.72
2019-02-07T13:09:09.485Z,4.65
2019-02-07T13:14:13.584Z,4.64
2019-02-07T13:19:17.867Z,4.73
2019-02-07T13:24:22.035Z,4.96
2019-02-07T13:29:26.219Z,5.03
2019-02-07T13:34:30.789Z,4.93
2019-02-07T13:39:37.551Z,4.99
2019-02-07T13:44:40.661Z,4.91
2019-02-07T13:49:51.661Z,4.80
2019-02-07T13:54:53.739Z,4.84
2019-02-07T13:59:57.930Z,4.94
2019-02-07T14:05:02.047Z,4.95
2019-02-07T14:10:07.294Z,5.03
2019-02-07T14:15:13.670Z,5.16
2019-02-07T14:20:18.050Z,5.14
2019-02-07T14:25:22.591Z,5.09
2019-02-07T14:30:27.732Z,4.76
2019-02-07T14:35:37.722Z,4.69
2019-02-07T14:40:42.548Z,4.57
2019-02-07T14:45:46.688Z,4.64
2019-02-07T14:50:51.469Z,4.65
2019-02-07T14:55:55.679Z,4.56
2019-02-07T15:00:59.722Z,4.56
2019-02-07T15:06:04.227Z,4.55
2019-02-07T15:11:08.247Z,4.48
2019-02-07T15:16:12.301Z,4.38
2019-02-07T15:21:16.433Z,4.36
2019-02-07T15:26:20.463Z,4.30
2019-02-07T15:31:24.916Z,4.23
2019-02-07T15:36:29.002Z,4.19
2019-02-07T15:41:33.140Z,4.21
2019-02-07T15:46:37.562Z,4.10
2019-02-07T15:51:41.726Z,4.09
2019-02-07T15:56:45.771Z,4.13
2019-02-07T16:01:49.816Z,3.94
2019-02-07T16:06:53.989Z,3.85
2019-02-07T16:11:58.443Z,3.65
2019-02-07T16:17:02.492Z,3.46
2019-02-07T16:22:06.614Z,3.39
2019-02-07T16:27:10.665Z,3.24
2019-02-07T16:32:15.087Z,3.26
2019-02-07T16:37:19.176Z,3.26
2019-02-07T16:42:23.656Z,3.25
2019-02-07T16:47:27.897Z,3.12
2019-02-07T16:52:31.950Z,3.11
2019-02-07T16:57:36.056Z,3.08
2019-02-07T17:02:40.180Z,3.36
2019-02-07T17:07:44.607Z,3.11
2019-02-07T17:12:48.675Z,3.02
2019-02-07T17:17:52.735Z,2.75
2019-02-07T17:22:57.212Z,2.53
2019-02-07T17:28:01.483Z,2.43
2019-02-07T17:33:05.880Z,2.61
2019-02-07T17:38:10.019Z,2.43
2019-02-07T17:43:14.117Z,2.43
2019-02-07T17:48:18.533Z,2.37
2019-02-07T17:53:22.653Z,2.37
2019-02-07T17:58:27.294Z,2.42
2019-02-07T18:03:31.978Z,2.41
2019-02-07T18:08:36.027Z,2.36
2019-02-07T18:13:40.165Z,2.16
2019-02-07T18:18:48.573Z,2.09
2019-02-07T18:23:52.837Z,1.97
2019-02-07T18:28:58.872Z,1.84
2019-02-07T18:34:03.498Z,1.82
2019-02-07T18:39:09.067Z,1.95
2019-02-07T18:44:14.004Z,2.09
2019-02-07T18:49:23.196Z,2.24
2019-02-07T18:54:28.300Z,2.33
2019-02-07T18:59:34.412Z,2.58
2019-02-07T19:04:38.847Z,2.83
2019-02-07T19:09:43.031Z,2.72
2019-02-07T19:14:47.310Z,2.90
2019-02-07T19:19:55.719Z,2.71
2019-02-07T19:25:00.090Z,2.68
2019-02-07T19:30:07.584Z,2.69
2019-02-07T19:35:12.240Z,2.72
2019-02-07T19:40:16.754Z,2.49
2019-02-07T19:45:21.451Z,2.31
2019-02-07T19:50:25.860Z,2.15
2019-02-07T19:55:30.013Z,2.11
2019-02-07T20:00:34.504Z,2.04
2019-02-07T20:05:41.172Z,1.96
2019-02-07T20:10:45.429Z,1.98
2019-02-07T20:15:49.781Z,2.10
2019-02-07T20:20:53.908Z,2.27
2019-02-07T20:25:58.160Z,2.17
2019-02-07T20:31:02.214Z,2.01
2019-02-07T20:36:06.260Z,1.87
2019-02-07T20:41:10.380Z,1.80
2019-02-07T20:46:14.793Z,1.95
2019-02-07T20:51:19.111Z,1.88
2019-02-07T20:56:23.476Z,2.09
2019-02-07T21:01:27.559Z,1.96
2019-02-07T21:06:31.730Z,1.97
2019-02-07T21:11:36.073Z,2.18
2019-02-07T21:16:40.134Z,2.15
2019-02-07T21:21:44.237Z,2.35
2019-02-07T21:26:48.277Z,2.29
2019-02-07T21:31:52.584Z,2.15
2019-02-07T21:36:56.678Z,2.27
2019-02-07T21:42:00.752Z,2.29
2019-02-07T21:47:04.951Z,2.30
2019-02-07T21:52:09.450Z,2.40
2019-02-07T21:57:13.708Z,2.52
2019-02-07T22:02:17.748Z,2.36
2019-02-07T22:07:21.830Z,2.31
2019-02-07T22:12:25.896Z,2.43
2019-02-07T22:17:29.988Z,2.44
2019-02-07T22:22:34.197Z,2.32
2019-02-07T22:27:38.231Z,2.36
2019-02-07T22:32:42.280Z,2.38
2019-02-07T22:37:46.318Z,2.25
2019-02-07T22:42:50.743Z,2.37
2019-02-07T22:47:55.079Z,2.20
2019-02-07T22:52:59.764Z,2.12
2019-02-07T22:58:04.912Z,2.08
2019-02-07T23:03:09.257Z,2.18
2019-02-07T23:08:14.264Z,2.08
2019-02-07T23:13:18.712Z,2.09
2019-02-07T23:18:23.197Z,2.20
2019-02-07T23:23:27.284Z,2.12
2019-02-07T23:28:31.331Z,2.06
2019-02-07T23:33:35.457Z,2.20
2019-02-07T23:38:39.675Z,2.16
2019-02-07T23:43:46.227Z,2.19
2019-02-07T23:48:49.794Z,2.20
2019-02-07T23:53:53.879Z,2.26
2019-02-07T23:58:57.892Z,2.31
